Tiempo atmosférico en la estación meteorológica de Aranda De Duero, Burgos (790 m.)

Fecha
DESCASC
Temp. máxima en grados centígrados (hora)
DESCASC
Temp. mínima en grados centígrados (hora)
DESCASC
Temp. media en grados centígrados
DESCASC
Racha de viento máxima en m/sg (hora)
DESCASC
Velocidad máxima media en intervalos de 10 minutos(hora)
DESCASC
Precipitaciones diarias en mm
DESCASC
Precipitaciones de 00:00 a 06:00 en mm
DESCASC
Precipitaciones de 06:00 a 12:00 en mm
DESCASC
Precipitaciones de 12:00 a 18:00 en mm
DESCASC
Precipitaciones de 18:00 a 24:00 en mm
DESCASC
05-10-2017 29.1 (16:30) 7.8 (00:00) 18.5 7.78 (17:00) 3.61 (17:00) 0 0 0 0 0
19-10-2017 14.4 (17:40) 6.5 (00:00) 10.4 6.67 (16:30) 2.5 (16:30) 0 0 0 0 0
17-10-2017 20.4 (13:20) 10.6 (00:00) 15.5 11.94 (19:00) 4.72 (19:10) 0.2 0 0 0 0.2
16-10-2017 25.9 (17:10) 11.1 (00:00) 18.5 8.33 (11:20) 4.44 (11:10) 0 0 0 0 0
15-10-2017 27.5 (15:50) 10.3 (00:00) 18.9 7.5 (12:00) 4.17 (12:00) 0 0 0 0 0
14-10-2017 27.7 (17:00) 5.2 (00:00) 16.5 7.22 (16:30) 2.78 (15:50) 0 0 0 0 0
13-10-2017 26.9 (16:20) 8.1 (00:00) 17.5 6.11 (15:50) 2.22 (10:20) 0 0 0 0 0
12-10-2017 26.6 (16:10) 3.3 (00:00) 15 5 (15:20) 2.22 (17:00) 0 0 0 0 0
11-10-2017 26 (16:00) 3 (00:00) 14.5 8.61 (15:40) 3.06 (15:40) 0 0 0 0 0
10-10-2017 25.9 (16:40) 1.2 (00:00) 13.5 5 (18:10) 2.22 (11:40) 0 0 0 0 0
09-10-2017 25 (16:00) -0.2 (00:00) 12.4 5.56 (17:00) 2.22 (18:30) 0 0 0 0 0
08-10-2017 25.7 (16:10) -0.6 (-00:0) 12.6 7.22 (18:20) 2.78 (16:40) 0 0 0 0 0
07-10-2017 23.6 (17:20) 0 (00:00) 11.8 3.61 (16:20) 1.39 (00:50) 0 0 0 0 0
06-10-2017 24.1 (14:20) 3.8 (00:00) 14 11.67 (19:20) 5 (16:30) 0 0 0 0 0
20-09-2017 25.9 (16:30) 2.8 (00:00) 14.3 5.83 (16:20) 1.94 (17:50) 0 0 0 0 0
04-10-2017 26.5 (17:50) 10.9 (00:00) 18.7 7.78 (10:20) 3.89 (10:00) 0 0 0 0 0
03-10-2017 26.4 (15:30) 8.7 (00:00) 17.5 7.22 (16:40) 2.78 (17:20) 0 0 0 0 0
02-10-2017 25.1 (17:00) 9.8 (00:00) 17.5 8.89 (14:30) 4.72 (15:00) 0 0 0 0 0
01-10-2017 23.3 (15:10) 10.8 (00:00) 17 6.67 (15:40) 2.5 (15:20) 0 0 0 0 0
30-09-2017 24.9 (16:40) 10.6 (00:00) 17.8 7.22 (15:50) 3.06 (18:50) 0 0 0 0 0
29-09-2017 27.5 (17:10) 8.2 (00:00) 17.8 7.5 (15:30) 3.06 (15:30) 0 0 0 0 0
28-09-2017 27.3 (16:00) 7.3 (00:00) 17.3 5.83 (15:40) 2.22 (10:10) 0 0 0 0 0
27-09-2017 26.4 (16:30) 4.4 (00:00) 15.4 6.39 (15:50) 2.22 (14:20) 0 0 0 0 0
26-09-2017 23.3 (16:40) 4.7 (00:00) 14 5.56 (16:10) 2.78 (11:00) 0 0 0 0 0
25-09-2017 23.3 (16:30) 11.3 (00:00) 17.3 7.22 (19:30) 3.33 (18:10) 0 0 0 0 0
24-09-2017 28.2 (16:30) 8.7 (00:00) 18.5 10 (14:50) 3.61 (14:40) 0 0 0 0 0
23-09-2017 27.2 (16:00) 11.2 (00:00) 19.2 7.5 (15:10) 3.61 (01:40) 0 0 0 0 0
22-09-2017 24.5 (15:00) 8.6 (00:00) 16.6 10.83 (17:00) 5.83 (15:30) 0.2 0 0 0 0.2
21-09-2017 26.9 (15:40) 5.2 (00:00) 16 8.06 (14:20) 2.5 (17:10) 0 0 0 0 0
18-10-2017 13.4 (15:20) 8.8 (00:00) 11.1 5.28 (17:40) 2.22 (16:10) 10 0 4.4 4.4 1.2

Gráficas

Temp. máximas Temp. mínimas Temp. medias Precipitaciones Rachas de viento máximas Velocidades máximas media en intervalos de 10 minutos

Datos horarios

Fecha y hora oficial Temperatura (ºC) Velocidad del viento (km/h) Dirección del viento Racha (km/h) Dirección de racha Precipitación (mm) Presión (hPa) Tendencia (hPa) Humedad (%)
2017-10-19 23:00:00 12.1 6 Oeste 15 Oeste 0 926 1.6 70
2017-10-19 22:00:00 11.1 2 Oeste 6 Oeste 0 925.2 1.5 77
2017-10-19 21:00:00 10.9 0 Calma 5 Oeste 0 924.8 1.3 78
2017-10-19 20:00:00 11.1 0 Calma 6 Oeste 0 924.4 1.4 73
2017-10-19 19:00:00 13.2 2 Oeste 16 Oeste 0 923.7 0.9 56
2017-10-19 18:00:00 14.1 5 Oeste 22 Oeste 0 923.5 0.3 52
2017-10-19 17:00:00 13.9 6 Oeste 24 Sudoeste 0 923 -0.7 58
2017-10-19 16:00:00 13.8 5 Sudoeste 18 Oeste 0 922.8 -1 55
2017-10-19 15:00:00 13.1 5 Oeste 24 Oeste 0 923.2 -0.5 62
2017-10-19 14:00:00 12.1 6 Oeste 20 Oeste 0 923.7 0.4 64
2017-10-19 13:00:00 10.9 5 Oeste 17 Oeste 0 923.8 0.9 72
2017-10-19 12:00:00 9.3 4 Oeste 17 Sudoeste 0 923.7 1.4 78
2017-10-19 11:00:00 7.7 4 Sudoeste 13 Sudoeste 0 923.3 1.4 83
2017-10-19 10:00:00 7 4 Oeste 15 Oeste 0 922.9 1.3 86
2017-10-19 09:00:00 6.7 0 Calma 6 Sudoeste 0 922.3 0.8 87
2017-10-19 08:00:00 6.9 0 Calma 10 Oeste 0 921.9 0.6 85
2017-10-19 07:00:00 7.6 3 Sudoeste 12 Oeste 0 921.6 0.2 85
2017-10-19 06:00:00 7.8 4 Oeste 12 Oeste 0 921.5 0.1 85
2017-10-19 05:00:00 8.1 3 Oeste 11 Sudoeste 0 921.3 -0.2 85
2017-10-19 04:00:00 8.4 4 Sudoeste 13 Sudoeste 0 921.4 0.1 85
2017-10-19 03:00:00 8.5 5 Sudoeste 17 Oeste 0 921.4 -0.4 84
2017-10-19 02:00:00 8.6 4 Sudoeste 16 Oeste 0 921.5 -0.3 84
2017-10-19 01:00:00 8.6 2 Oeste 13 Sudoeste 0 921.3 -0.2 85
2017-10-19 00:00:00 8.8 2 Sur 10 Sudoeste 0 921.8 0.9 85
2017-10-18 23:00:00 9 5 Sudoeste 17 Sudoeste 0.2 921.8 1.3 84
2017-10-18 22:00:00 9.4 5 Sudoeste 12 Sudoeste 0.2 921.5 1.3 87
2017-10-18 21:00:00 9.4 4 Nordeste 9 Nordeste 0 920.9 0.7 86
2017-10-18 20:00:00 9.5 3 Este 12 Sudoeste 0.2 920.5 0.7 85
2017-10-18 19:00:00 9.3 3 Sur 17 Sudoeste 0.6 920.2 0.3 86
2017-10-18 18:00:00 9.7 3 Sudoeste 19 Sudoeste 3.2 920.2 -0.2 82
2017-10-18 17:00:00 11.8 4 Sudoeste 16 Sudoeste 0.6 919.8 -1.6 79
2017-10-18 16:00:00 12.9 6 Sudoeste 16 Sudoeste 0 919.9 -2.1 67
2017-10-18 15:00:00 13.3 4 Oeste 13 Sudoeste 0 920.4 -1.6 74
2017-10-18 14:00:00 11.6 4 Sudoeste 13 Sudoeste 0.4 921.4 -0.5 83
2017-10-18 13:00:00 11 3 Oeste 10 Oeste 0.2 922 0 85
2017-10-18 12:00:00 10.7 2 Oeste 13 Oeste 0.4 922 -0.1 87
2017-10-18 11:00:00 10.1 4 Oeste 12 Oeste 1 921.9 -0.1 87
2017-10-18 10:00:00 10 0 Calma 11 Oeste 1.8 922 -0.7 87
2017-10-18 09:00:00 10.3 0 Calma 5 Sudoeste 1 922.1 -0.9 87
2017-10-18 08:00:00 10.2 0 Calma 3 Norte 0.2 922 -1.5 87
2017-10-18 07:00:00 10.3 2 Oeste 8 Sudeste 0 922.7 -1.7 86
2017-10-18 06:00:00 10.2 2 Este 7 Este 0 923 -2 84
2017-10-18 05:00:00 10.7 0 Calma 5 Sudeste 0 923.5 -1.9 83
2017-10-18 04:00:00 10.5 0 Calma 4 Sur 0 924.4 -1.6 86
2017-10-18 03:00:00 10.4 0 Calma 6 Sudeste 0 925 -1.4 84
2017-10-18 02:00:00 10.9 3 Sudeste 11 Este 0 925.4 -1 84
2017-10-18 01:00:00 12.6 0 Calma 8 Sudoeste 0 926 -0.4 80
2017-10-18 00:00:00 13.1 0 Calma 7 Sudoeste 0 926.4 -0.2 82
2017-10-17 23:00:00 13.2 3 Oeste 8 Sudoeste 0 926.4 -0.2 80
2017-10-17 22:00:00 14.2 0 Calma 18 Sudoeste 0 926.4 0.1 74
2017-10-17 21:00:00 14.7 3 Sur 11 Sudoeste 0 926.6 0 77
2017-10-17 20:00:00 15 6 Sur 42 Sudoeste 0.2 926.6 -0.4 77
2017-10-17 19:00:00 17.8 14 Sudoeste 43 Sudoeste 0 926.3 -1.1 52
2017-10-17 18:00:00 18.5 9 Sur 37 Sudoeste 0 926.6 -1.2 47
2017-10-17 17:00:00 19 13 Sudoeste 40 Sudoeste 0 927 -1.3 46
2017-10-17 16:00:00 18.2 4 Sur 26 Sur 0 927.4 -1.1 55
2017-10-17 15:00:00 17.9 9 Sur 37 Sur 0 927.8 -1.4 51
2017-10-17 14:00:00 19.8 11 Sur 37 Sur 0 928.3 -1.5 41
2017-10-17 13:00:00 20.2 7 Sur 27 Sur 0 928.5 -1 41
2017-10-17 12:00:00 16.7 11 Este 23 Sudeste 0 929.2 -0.1 51
2017-10-17 11:00:00 14.3 9 Este 21 Este 0 929.8 0.4 58
2017-10-17 10:00:00 13 8 Este 26 Este 0 929.5 -0.1 62
2017-10-17 09:00:00 12.1 10 Este 21 Este 0 929.3 -0.7 61
2017-10-17 08:00:00 11.4 9 Este 23 Este 0 929.4 -0.7 63
2017-10-17 07:00:00 10.9 10 Este 17 Este 0 929.6 -0.8 65
2017-10-17 06:00:00 11.2 9 Sudeste 15 Este 0 930 -0.9 64
2017-10-17 05:00:00 11.2 7 Este 12 Este 0 930.1 -1.4 64
2017-10-17 04:00:00 12.6 5 Este 12 Este 0 930.4 -1.5 60
2017-10-17 03:00:00 13.5 7 Este 17 Este 0 930.9 -1.2 56
2017-10-17 02:00:00 13.9 6 Este 13 Este 0 931.5 -0.5 53
2017-10-17 01:00:00 14.3 3 Este 13 Este 0 931.9 0 47
2017-10-17 00:00:00 15.5 3 Este 18 Este 0 932.1 0.3 46
2017-10-16 23:00:00 15.6 3 Este 8 Este 0 932 0.4 49
2017-10-16 22:00:00 17.7 0 Calma 16 Sudoeste 0 931.9 0.7 43
2017-10-16 21:00:00 20.7 5 Sudoeste 15 Sudoeste 0 931.8 0.7 31
2017-10-16 20:00:00 21.2 4 Sudoeste 12 Sudoeste 0 931.6 0.1 29
2017-10-16 19:00:00 22.9 0 Calma 11 Este 0 931.2 -0.7 36
2017-10-16 18:00:00 24.8 7 Este 22 Este 0 931.1 -1.3 27
2017-10-16 17:00:00 25.6 5 Sudeste 15 Sudeste 0 931.5 -1.7 22
2017-10-16 16:00:00 25.1 2 Sudeste 19 Este 0 931.9 -1.9 23
2017-10-16 15:00:00 24.9 8 Este 19 Este 0 932.4 -1.8 26
2017-10-16 14:00:00 24.3 6 Sudeste 21 Sudeste 0 933.2 -0.9 29
2017-10-16 13:00:00 21.5 9 Este 27 Sudeste 0 933.8 0 37
2017-10-16 12:00:00 18.9 15 Este 30 Sudeste 0 934.2 1.1 47
2017-10-16 11:00:00 17.3 13 Este 29 Este 0 934.1 1.5 54
2017-10-16 10:00:00 14.7 12 Este 25 Este 0 933.8 1.7 62
2017-10-16 09:00:00 11.8 7 Este 15 Este 0 933.1 1.3 71
2017-10-16 08:00:00 11.7 7 Este 14 Sudeste 0 932.6 0.8 70
2017-10-16 07:00:00 12.1 8 Este 20 Sudeste 0 932.1 0.1 67
2017-10-16 06:00:00 12.2 8 Este 14 Este 0 931.8 -0.5 67
2017-10-16 05:00:00 13.2 8 Este 22 Este 0 931.8 -0.8 63
2017-10-16 04:00:00 13.9 9 Este 18 Este 0 932 -0.6 61
2017-10-16 03:00:00 14.5 6 Este 18 Este 0 932.3 -0.4 57
2017-10-16 02:00:00 14.2 7 Sudeste 13 Sudeste 0 932.6 0 52
2017-10-16 01:00:00 15.5 7 Este 15 Este 0 932.6 0.2 45
2017-10-16 00:00:00 15.1 4 Este 13 Este 0 932.7 0.4 46
2017-10-15 23:00:00 14.7 0 Calma 7 Este 0 932.6 0.7 51
2017-10-15 22:00:00 16.6 2 Norte 6 Nordeste 0 932.4 0.9 43
2017-10-15 21:00:00 21.3 2 Sur 13 Sur 0 932.3 0.9 28
2017-10-15 20:00:00 23.3 4 Sur 14 Sur 0 931.9 0.3 24
2017-10-15 19:00:00 24.6 3 Sur 9 Sur 0 931.5 -0.8 23
2017-10-15 18:00:00 25.3 3 Sur 14 Sudeste 0 931.4 -1.4 26
2017-10-15 17:00:00 27.3 8 Este 22 Sudeste 0 931.6 -2.4 19
2017-10-15 16:00:00 27.4 9 Este 20 Sudeste 0 932.3 -2.5 20
2017-10-15 15:00:00 26.7 10 Este 22 Este 0 932.8 -2.6 22
2017-10-15 14:00:00 24.5 9 Este 21 Este 0 934 -1.7 27
2017-10-15 13:00:00 20.7 9 Sudeste 24 Este 0 934.8 -0.6 35
2017-10-15 12:00:00 18.6 15 Este 27 Este 0 935.4 0.3 40
2017-10-15 11:00:00 14.9 8 Este 20 Este 0 935.7 0.9 56
2017-10-15 10:00:00 14.4 6 Este 13 Sudeste 0 935.4 0.5 59
2017-10-15 09:00:00 11.3 3 Sudeste 13 Sudeste 0 935.1 0.3 59
2017-10-15 08:00:00 10.7 6 Sudeste 13 Este 0 934.8 0.2 57
2017-10-15 07:00:00 10.4 8 Sudeste 13 Sudeste 0 934.9 0.2 54
2017-10-15 06:00:00 11 6 Este 12 Este 0 934.8 -0.1 51
2017-10-15 05:00:00 11.1 5 Sudeste 9 Sudeste 0 934.6 -0.3 50
2017-10-15 04:00:00 11.1 4 Este 11 Este 0 934.7 -0.2 51
2017-10-15 03:00:00 11 6 Este 13 Este 0 934.9 0.2 51
2017-10-15 02:00:00 11.3 5 Este 9 Sudeste 0 934.9 0.5 51
2017-10-15 01:00:00 10.4 3 Este 9 Este 0 934.9 0.9 59
2017-10-15 00:00:00 11 4 Este 6 Este 0 934.7 0.8 57
2017-10-14 23:00:00 12.4 3 Este 13 Sudoeste 0 934.4 1 51
2017-10-14 22:00:00 14 3 Este 5 Este 0 934 1.1 44
2017-10-14 21:00:00 16.5 0 Calma 4 Sudoeste 0 933.9 1.3 41
2017-10-14 20:00:00 20.5 0 Calma 9 Oeste 0 933.4 0.7 28
2017-10-14 19:00:00 25.2 4 Oeste 19 Noroeste 0 932.9 0 19
2017-10-14 18:00:00 26.9 6 Oeste 23 Oeste 0 932.6 -0.8 16
2017-10-14 17:00:00 27.7 8 Sudoeste 26 Sudoeste 0 932.7 -1.6 14
2017-10-14 16:00:00 27.2 9 Sudoeste 23 Oeste 0 932.9 -2 14
2017-10-14 15:00:00 25.5 4 Oeste 16 Sudoeste 0 933.4 -1.8 22
2017-10-14 14:00:00 23.7 5 Oeste 17 Oeste 0 934.3 -1 27
2017-10-14 13:00:00 19.9 2 Este 10 Sudeste 0 934.9 -0.1 36
2017-10-14 12:00:00 17.8 5 Este 16 Este 0 935.2 0.6 44
2017-10-14 11:00:00 15 3 Este 6 Sudeste 0 935.3 1.1 50
2017-10-14 10:00:00 10.9 2 Sudeste 11 Sudeste 0 935 0.9 60
2017-10-14 09:00:00 5.7 3 Este 5 Este 0 934.6 0.3 78
2017-10-14 08:00:00 5.9 0 Calma 7 Sudeste 0 934.2 -0.1 74
2017-10-14 07:00:00 7.2 2 Sudeste 9 Sudeste 0 934.1 -0.3 69
2017-10-14 06:00:00 7.7 6 Sudeste 10 Sudeste 0 934.3 -0.5 70
2017-10-14 05:00:00 8.2 3 Este 9 Sudeste 0 934.3 -0.2 68
2017-10-14 04:00:00 8.2 4 Este 8 Sudeste 0 934.4 -0.1 71
2017-10-14 03:00:00 8.6 2 Este 6 Sudeste 0 934.8 0.5 69
2017-10-14 02:00:00 8.4 2 Oeste 6 Sudoeste 0 934.5 0.3 68
2017-10-14 01:00:00 9.5 3 Este 7 Este 0 934.5 0.6 69
2017-10-14 00:00:00 10.2 0 Calma 4 Este 0 934.3 0.8 72
2017-10-13 23:00:00 11.7 0 Calma 3 Este 0 934.2 1.1 69
2017-10-13 22:00:00 13.9 0 Calma 6 Sudoeste 0 933.9 1.2 55
2017-10-13 21:00:00 16.2 3 Sudoeste 6 Sudoeste 0 933.5 0.9 41
2017-10-13 20:00:00 20 0 Calma 6 Norte 0 933.1 0.3 34
2017-10-13 19:00:00 24.5 3 Norte 10 Noroeste 0 932.7 -0.4 28
2017-10-13 18:00:00 25.7 3 Oeste 14 Noroeste 0 932.6 -1 24
2017-10-13 17:00:00 25.7 4 Noroeste 15 Oeste 0 932.8 -1.5 25
2017-10-13 16:00:00 26.1 5 Noroeste 22 Sudoeste 0 933.1 -1.9 25
2017-10-13 15:00:00 26 5 Sudoeste 16 Oeste 0 933.6 -1.9 25
2017-10-13 14:00:00 24 4 Norte 12 Noroeste 0 934.3 -1.2 30
2017-10-13 13:00:00 21.7 3 Este 13 Este 0 935 -0.3 31
2017-10-13 12:00:00 19.2 6 Este 14 Sudeste 0 935.5 0.5 36
2017-10-13 11:00:00 15.9 6 Este 13 Este 0 935.5 0.5 46
2017-10-13 10:00:00 12.4 6 Sudeste 10 Este 0 935.3 0.4 52
2017-10-13 09:00:00 8.6 5 Sudeste 9 Sudeste 0 935 0.3 61
2017-10-13 08:00:00 8.2 3 Sudeste 10 Este 0 935 0.4 62
2017-10-13 07:00:00 8.6 5 Sudeste 11 Este 0 934.9 0.2 59
2017-10-13 06:00:00 8.9 5 Sudeste 9 Sudeste 0 934.7 0.1 59
2017-10-13 05:00:00 9.6 5 Este 9 Este 0 934.6 0.1 54
2017-10-13 04:00:00 10 2 Este 13 Este 0 934.7 0.2 53
2017-10-13 03:00:00 10.6 7 Este 12 Este 0 934.6 0 49
2017-10-13 02:00:00 11.1 7 Este 12 Este 0 934.5 -0.1 47
2017-10-13 01:00:00 11.4 4 Sudeste 14 Este 0 934.5 0.2 48
2017-10-13 00:00:00 11 5 Este 11 Sudeste 0 934.6 0.6 50
2017-10-12 23:00:00 11.2 4 Este 7 Este 0 934.6 0.8 58
2017-10-12 22:00:00 12.8 5 Este 7 Este 0 934.3 0.8 44
2017-10-12 21:00:00 15.5 2 Este 4 Sudeste 0 934 0.5 40
2017-10-12 20:00:00 19.5 2 Este 6 Norte 0 933.8 0.1 28
2017-10-12 19:00:00 23.5 3 Norte 7 Norte 0 933.5 -0.5 23
2017-10-12 18:00:00 25.6 4 Nordeste 12 Noroeste 0 933.5 -1 16
2017-10-12 17:00:00 25.6 8 Noroeste 14 Sudoeste 0 933.7 -1.4 15
2017-10-12 16:00:00 26.3 4 Noroeste 18 Oeste 0 934 -1.8 14
2017-10-12 15:00:00 25.7 5 Oeste 18 Oeste 0 934.5 -1.6 13
2017-10-12 14:00:00 23.6 4 Nordeste 14 Sudeste 0 935.1 -1.2 17
2017-10-12 13:00:00 19.6 4 Este 13 Sudeste 0 935.8 -0.2 29
2017-10-12 12:00:00 15.3 6 Este 13 Este 0 936.1 0.5 39
2017-10-12 11:00:00 11.9 6 Sudeste 11 Este 0 936.3 1.1 43
2017-10-12 10:00:00 8 5 Sudeste 10 Sudeste 0 936 1.1 56
2017-10-12 09:00:00 3.8 6 Este 10 Sudeste 0 935.6 1 69
2017-10-12 08:00:00 3.3 5 Sudeste 10 Este 0 935.2 0.7 70
2017-10-12 07:00:00 4 5 Este 10 Este 0 934.9 0.5 70
2017-10-12 06:00:00 4.3 5 Este 10 Este 0 934.6 0.1 72
2017-10-12 05:00:00 4.3 4 Este 9 Este 0 934.5 0.3 69
2017-10-12 04:00:00 4 0 Calma 5 Sudeste 0 934.4 0.5 68
2017-10-12 03:00:00 4.7 0 Calma 4 Sudeste 0 934.5 0.6 65
2017-10-12 02:00:00 6 0 Calma 6 Este 0 934.2 0.5 68
2017-10-12 01:00:00 6.9 0 Calma 6 Este 0 933.9 0.8 64
2017-10-12 00:00:00 8.2 3 Este 4 Este 0 933.9 1.5 61
2017-10-11 23:00:00 10.2 0 Calma 6 Este 0 933.7 1.8 55
2017-10-11 22:00:00 12.9 5 Este 9 Sudeste 0 933.1 1.8 40
2017-10-11 21:00:00 14.9 0 Calma 6 Sudoeste 0 932.4 1.4 34
2017-10-11 20:00:00 19.3 2 Sudoeste 14 Noroeste 0 931.9 1 27
2017-10-11 19:00:00 22.9 4 Noroeste 21 Noroeste 0 931.3 0.3 20
2017-10-11 18:00:00 24.2 4 Oeste 26 Noroeste 0 931 -0.3 20
2017-10-11 17:00:00 24.8 6 Noroeste 26 Sudoeste 0 930.9 -1 20
2017-10-11 16:00:00 25.9 10 Oeste 31 Oeste 0 931 -1.3 15
2017-10-11 15:00:00 25.1 5 Oeste 30 Noroeste 0 931.3 -1.2 15
2017-10-11 14:00:00 22.6 4 Oeste 14 Sudoeste 0 931.9 -0.6 20
2017-10-11 13:00:00 18.8 4 Este 10 Este 0 932.3 -0.1 25
2017-10-11 12:00:00 15.7 5 Este 13 Este 0 932.5 0.5 31
2017-10-11 11:00:00 12.3 8 Sudeste 17 Sudeste 0 932.5 1 38
2017-10-11 10:00:00 8.3 7 Sudeste 15 Este 0 932.4 1 48
2017-10-11 09:00:00 3.9 4 Este 10 Sudeste 0 932 0.8 65
2017-10-11 08:00:00 3.7 5 Sudeste 9 Sudeste 0 931.5 0.4 63
2017-10-11 07:00:00 3.7 4 Este 10 Sudeste 0 931.4 0.2 63
2017-10-11 06:00:00 3.4 4 Este 7 Este 0 931.2 0 67
2017-10-11 05:00:00 3.9 4 Este 6 Este 0 931.1 0 62
2017-10-11 04:00:00 4.4 2 Este 6 Sudoeste 0 931.2 0.2 59
2017-10-11 03:00:00 6.9 5 Sudeste 10 Este 0 931.2 0 49
2017-10-11 02:00:00 7.1 6 Sudeste 10 Sudeste 0 931.1 0.4 52
2017-10-11 01:00:00 6.6 4 Este 8 Este 0 931 0.7 57
2017-10-11 00:00:00 6.5 0 Calma 4 Este 0 931.2 1.6 52
2017-10-10 23:00:00 8.7 2 Este 7 Sudeste 0 930.7 1.4 51
2017-10-10 22:00:00 10.3 0 Calma 7 Noroeste 0 930.3 1.3 34
2017-10-10 21:00:00 13.9 2 Este 6 Este 0 929.6 0.8 29
2017-10-10 20:00:00 18.6 0 Calma 4 Sudeste 0 929.3 0.3 24
2017-10-10 19:00:00 23.2 3 Noroeste 18 Oeste 0 929 -0.2 18
2017-10-10 18:00:00 24.4 2 Noroeste 16 Sudoeste 0 928.8 -0.9 13
2017-10-10 17:00:00 25.4 5 Sudeste 15 Oeste 0 929 -1.5 12
2017-10-10 16:00:00 25.5 5 Sudoeste 14 Sudoeste 0 929.2 -1.9 11
2017-10-10 15:00:00 24.4 4 Sur 15 Sudoeste 0 929.7 -1.7 12
2017-10-10 14:00:00 22 3 Norte 8 Norte 0 930.5 -1.1 19
2017-10-10 13:00:00 18.6 2 Nordeste 9 Sudeste 0 931.1 -0.4 26
2017-10-10 12:00:00 15.6 4 Este 13 Este 0 931.4 0.4 34
2017-10-10 11:00:00 12.8 4 Este 10 Este 0 931.6 0.9 42
2017-10-10 10:00:00 8.9 5 Sudeste 11 Sudeste 0 931.5 1.3 50
2017-10-10 09:00:00 2.3 4 Este 8 Sudeste 0 931 0.8 75
2017-10-10 08:00:00 1.9 3 Este 6 Este 0 930.7 0.5 79
2017-10-10 07:00:00 1.7 4 Este 8 Sudeste 0 930.2 -0.1 75
2017-10-10 06:00:00 1.7 0 Calma 4 Este 0 930.2 -0.3 73
2017-10-10 05:00:00 2.1 0 Calma -- -- 0 930.2 -0.3 65
2017-10-10 04:00:00 3.1 0 Calma -- -- 0 930.3 -0.2 59
2017-10-10 03:00:00 4.2 0 Calma -- -- 0 930.5 0 61
2017-10-10 02:00:00 5.3 0 Calma 5 Sudoeste 0 930.5 0.2 54
2017-10-10 01:00:00 7.2 2 Este 9 Este 0 930.5 0.6 47
2017-10-10 00:00:00 8.1 5 Este 8 Este 0 930.5 0.8 50
2017-10-09 23:00:00 8.2 0 Calma 4 Este 0 930.3 0.9 55
2017-10-09 22:00:00 10.7 0 Calma 4 Este 0 929.9 0.8 33
2017-10-09 21:00:00 13.8 0 Calma 3 Este 0 929.7 0.7 27
2017-10-09 20:00:00 18.8 0 Calma 8 Noroeste 0 929.4 0.2 22
2017-10-09 19:00:00 22.8 6 Norte 18 Norte 0 929.1 -0.5 13
2017-10-09 18:00:00 23.7 4 Norte 18 Noroeste 0 929 -1.2 11
2017-10-09 17:00:00 24.9 6 Sudoeste 20 Oeste 0 929.2 -1.7 11
2017-10-09 16:00:00 25 5 Sudoeste 17 Oeste 0 929.6 -1.9 10
2017-10-09 15:00:00 23.9 4 Oeste 17 Sudoeste 0 930.2 -1.6 13
2017-10-09 14:00:00 21 2 Sur 9 Oeste 0 930.9 -1 15
2017-10-09 13:00:00 17.2 0 Calma 7 Norte 0 931.5 -0.3 25
2017-10-09 12:00:00 13.9 2 Nordeste 6 Sudeste 0 931.8 0.3 30
2017-10-09 11:00:00 11.5 3 Este 10 Este 0 931.9 0.7 34
2017-10-09 10:00:00 7.8 4 Este 11 Sudeste 0 931.8 0.8 46
2017-10-09 09:00:00 0.4 0 Calma 4 Este 0 931.5 0.6 68
2017-10-09 08:00:00 -0.1 0 Calma 5 Este 0 931.2 0.3 72
2017-10-09 07:00:00 0.5 2 Este 4 Este 0 931 0 73
2017-10-09 06:00:00 0.8 0 Calma 4 Este 0 930.9 -0.3 67
2017-10-09 05:00:00 1.6 0 Calma 5 Sudeste 0 930.9 -0.2 69
2017-10-09 04:00:00 2.5 0 Calma 7 Este 0 931 -0.3 57
2017-10-09 03:00:00 3.4 0 Calma 4 Este 0 931.2 -0.1 53
2017-10-09 02:00:00 4.3 0 Calma 4 Sudeste 0 931.1 0.1 48
2017-10-09 01:00:00 5.4 2 Este 3 Este 0 931.3 0.7 49
2017-10-09 00:00:00 7 0 Calma 5 Sudeste 0 931.3 1.1 39
2017-10-08 23:00:00 8.2 2 Sudoeste 6 Sudoeste 0 931 1.1 36
2017-10-08 22:00:00 10.3 0 Calma 5 Sudoeste 0 930.6 1.1 28
2017-10-08 21:00:00 13.5 2 Oeste 5 Sudoeste 0 930.2 1 24
2017-10-08 20:00:00 19.8 0 Calma 16 Noroeste 0 929.9 0.5 17
2017-10-08 19:00:00 23.6 7 Noroeste 26 Noroeste 0 929.5 -0.4 11
2017-10-08 18:00:00 24.4 8 Noroeste 23 Noroeste 0 929.2 -1.3 11
2017-10-08 17:00:00 24.5 7 Noroeste 24 Noroeste 0 929.4 -1.9 11
2017-10-08 16:00:00 25.2 4 Oeste 19 Oeste 0 929.9 -1.9 13
2017-10-08 15:00:00 24.2 5 Oeste 16 Oeste 0 930.5 -1.6 14
2017-10-08 14:00:00 22 5 Sudoeste 16 Oeste 0 931.3 -0.8 14
2017-10-08 13:00:00 17.6 5 Sudoeste 12 Sudoeste 0 931.8 -0.2 19
2017-10-08 12:00:00 14.1 3 Nordeste 7 Este 0 932.1 0.5 26
2017-10-08 11:00:00 11.3 4 Este 9 Este 0 932.1 0.6 37
2017-10-08 10:00:00 7.9 4 Este 8 Sudeste 0 932 0.6 47
2017-10-08 09:00:00 0 0 Calma 4 Sudoeste 0 931.6 0.5 66
2017-10-08 08:00:00 -0.3 0 Calma 3 Nordeste 0 931.5 0.6 65
2017-10-08 07:00:00 0.2 0 Calma 4 Sudoeste 0 931.4 0.3 62
2017-10-08 06:00:00 0.9 2 Sudoeste 6 Este 0 931.1 -0.2 61
2017-10-08 05:00:00 1.6 2 Este 3 Este 0 930.9 -0.4 60
2017-10-08 04:00:00 2.3 0 Calma 3 Noroeste 0 931.1 -0.2 60
2017-10-08 03:00:00 3.3 0 Calma 6 Este 0 931.3 0 60
2017-10-08 02:00:00 4.2 0 Calma 5 Sudoeste 0 931.3 0.4 48
2017-10-08 01:00:00 6 3 Este 8 Este 0 931.3 0.7 52
2017-10-08 00:00:00 6.6 2 Este 6 Sudeste 0 931.3 1.1 41
2017-10-07 23:00:00 8.2 3 Este 6 Sudeste 0 930.9 0.9 44
2017-10-07 22:00:00 10.7 0 Calma 8 Sudoeste 0 930.6 0.9 31
2017-10-07 21:00:00 13.4 4 Sudoeste 8 Sudoeste 0 930.2 0.6 23
2017-10-07 20:00:00 18.6 2 Oeste 10 Noroeste 0 930 0.1 16
2017-10-07 19:00:00 23.2 4 Oeste 10 Oeste 0 929.7 -0.7 11
2017-10-07 18:00:00 22.8 3 Oeste 13 Sudoeste 0 929.6 -1.5 11
2017-10-07 17:00:00 22.9 3 Sur 13 Noroeste 0 929.9 -2.1 9
2017-10-07 16:00:00 22.1 5 Noroeste 10 Noroeste 0 930.4 -2.1 12
2017-10-07 15:00:00 20.2 4 Norte 11 Norte 0 931.1 -1.9 13
2017-10-07 14:00:00 17.6 2 Sudeste 9 Sudoeste 0 932 -1.3 23
2017-10-07 13:00:00 14.5 3 Oeste 11 Sudoeste 0 932.5 -0.6 39
2017-10-07 12:00:00 12.1 2 Norte 7 Norte 0 933 0.1 50
2017-10-07 11:00:00 10.5 0 Calma 8 Norte 0 933.3 0.6 54
2017-10-07 10:00:00 6.7 2 Este 5 Norte 0 933.1 0.5 70
2017-10-07 09:00:00 0.6 2 Norte 4 Este 0 932.9 0.5 85
2017-10-07 08:00:00 0.2 2 Sudeste 5 Sudoeste 0 932.7 0.4 83
2017-10-07 07:00:00 1.5 0 Calma 6 Sudeste 0 932.6 0 85
2017-10-07 06:00:00 2.2 2 Este 7 Sudoeste 0 932.4 -0.3 84
2017-10-07 05:00:00 3.1 0 Calma 6 Sudoeste 0 932.3 -0.6 84
2017-10-07 04:00:00 4.2 0 Calma 4 Sudoeste 0 932.6 -0.5 81
2017-10-07 03:00:00 5.6 2 Oeste 5 Sudoeste 0 932.7 -0.2 80
2017-10-07 02:00:00 6.9 3 Sudoeste 8 Sudoeste 0 932.9 0.1 78
2017-10-07 01:00:00 8.5 3 Sudoeste 9 Oeste 0 933.1 0.5 75
2017-10-07 00:00:00 10.2 2 Sudoeste 13 Sudoeste 0 932.9 0.5 71
2017-10-06 23:00:00 12.2 3 Sudoeste 17 Norte 0 932.8 1.2 67
2017-10-06 22:00:00 14.3 9 Norte 22 Norte 0 932.6 1.3 58
2017-10-06 21:00:00 15.4 3 Oeste 23 Norte 0 932.4 1.4 53
2017-10-06 20:00:00 17.4 8 Norte 42 Norte 0 931.6 0.7 47
2017-10-06 19:00:00 19.7 15 Norte 38 Norte 0 931.3 0.3 39
2017-10-06 18:00:00 21.1 17 Norte 42 Norte 0 931 -0.6 32
2017-10-06 17:00:00 22.7 17 Norte 40 Norte 0 930.9 -1.4 31
2017-10-06 16:00:00 23.7 12 Noroeste 29 Noroeste 0 931 -2 31
2017-10-06 15:00:00 23.8 9 Oeste 28 Noroeste 0 931.6 -2 29
2017-10-06 14:00:00 22.8 6 Sudoeste 17 Sudoeste 0 932.3 -1.2 31
2017-10-06 13:00:00 18.9 5 Sudoeste 13 Sudoeste 0 933 0 42
2017-10-06 12:00:00 16 4 Sudoeste 13 Oeste 0 933.6 1 51
2017-10-06 11:00:00 14.3 0 Calma 5 Nordeste 0 933.5 1.1 60
2017-10-06 10:00:00 10.4 2 Este 9 Este 0 933 0.9 69
2017-10-06 09:00:00 4.6 0 Calma 6 Este 0 932.6 0.7 85
2017-10-06 08:00:00 4 0 Calma 4 Sudeste 0 932.4 0.6 84
2017-10-06 07:00:00 5.2 2 Este 4 Sudeste 0 932.1 0 85
2017-10-06 06:00:00 5.8 0 Calma 3 Norte 0 931.9 -0.1 85
2017-10-06 05:00:00 7.2 0 Calma 6 Sudoeste 0 931.8 -0.1 84
2017-10-06 04:00:00 8.5 2 Sudoeste 5 Sudoeste 0 932.1 -0.1 80
2017-10-06 03:00:00 9.9 2 Sudoeste 9 Sudoeste 0 932 -0.3 76
2017-10-06 02:00:00 11.6 3 Sudoeste 10 Oeste 0 931.9 -0.1 73
2017-10-06 01:00:00 12.2 3 Sudoeste 8 Noroeste 0 932.2 0.3 66
2017-10-06 00:00:00 13.4 3 Sudoeste 8 Norte 0 932.3 0.9 57
2017-10-05 23:00:00 16 2 Noroeste 13 Sudoeste 0 932 1.2 54
2017-10-05 22:00:00 19.2 0 Calma 13 Norte 0 931.9 1.4 44
2017-10-05 21:00:00 22 6 Nordeste 19 Nordeste 0 931.4 1 38
2017-10-05 20:00:00 24.7 7 Norte 24 Noroeste 0 930.8 0 33
2017-10-05 19:00:00 27.1 6 Norte 23 Norte 0 930.5 -0.6 18
2017-10-05 18:00:00 27.9 7 Noroeste 24 Noroeste 0 930.4 -1.5 19
2017-10-05 17:00:00 28.2 13 Noroeste 28 Noroeste 0 930.8 -1.9 18
2017-10-05 16:00:00 28 6 Noroeste 22 Noroeste 0 931.1 -2.2 24
2017-10-05 15:00:00 26.8 6 Noroeste 21 Noroeste 0 931.9 -1.8 26
2017-10-05 14:00:00 25.1 5 Norte 13 Nordeste 0 932.7 -1.4 32
2017-10-05 13:00:00 22.6 2 Sudoeste 8 Oeste 0 933.3 -0.3 38
2017-10-05 12:00:00 19.9 2 Nordeste 8 Este 0 933.7 0.5 48
2017-10-05 11:00:00 17.3 4 Este 9 Sudeste 0 934.1 0.9 53
2017-10-05 10:00:00 14.4 5 Sudeste 10 Sudeste 0 933.6 0.6 61
2017-10-05 09:00:00 9.1 4 Sudeste 7 Sudeste 0 933.2 0.4 75
2017-10-05 08:00:00 7.9 4 Sudeste 6 Sudeste 0 933.2 0.6 79
2017-10-05 07:00:00 8.4 0 Calma 8 Este 0 933 0.3 74
2017-10-05 06:00:00 9.1 2 Sudeste 9 Sudeste 0 932.8 -0.3 73
2017-10-05 05:00:00 10.1 4 Este 10 Este 0 932.6 -0.7 69
2017-10-05 04:00:00 10.5 5 Sudeste 8 Sudeste 0 932.7 -0.6 66
2017-10-05 03:00:00 10.5 4 Este 8 Sudeste 0 933.1 -0.2 69
2017-10-05 02:00:00 11.9 3 Este 10 Sudeste 0 933.3 0.3 64
2017-10-05 01:00:00 12.2 3 Sudeste 10 Sudeste 0 933.3 0.7 65
2017-10-05 00:00:00 12.4 3 Este 8 Sudoeste 0 933.3 1.2 72
2017-10-04 23:00:00 13.9 4 Este 9 Este 0 933 1.2 63
2017-10-04 22:00:00 15.8 3 Este 4 Este 0 932.6 1 53
2017-10-04 21:00:00 18.3 3 Este 6 Este 0 932.1 0.6 51
2017-10-04 20:00:00 22.3 3 Este 8 Este 0 931.8 0.1 44
2017-10-04 19:00:00 25.8 4 Este 10 Sudeste 0 931.6 -0.4 26
2017-10-04 18:00:00 26.3 4 Sudeste 12 Sudeste 0 931.5 -0.9 25
2017-10-04 17:00:00 26.1 3 Este 15 Norte 0 931.7 -1.4 24
2017-10-04 16:00:00 25.7 10 Norte 17 Norte 0 932 -1.4 27
2017-10-04 15:00:00 24.8 5 Este 14 Norte 0 932.4 -1.1 31
2017-10-04 14:00:00 23.3 5 Nordeste 15 Este 0 933.1 -0.3 36
2017-10-04 13:00:00 21.6 8 Este 19 Este 0 933.4 0.2 46
2017-10-04 12:00:00 20 9 Este 27 Este 0 933.5 0.7 53
2017-10-04 11:00:00 17.4 11 Este 28 Este 0 933.4 1.3 60
2017-10-04 10:00:00 14.4 14 Este 26 Este 0 933.2 0.9 70
2017-10-04 09:00:00 11.7 10 Este 18 Este 0 932.8 0.8 79
2017-10-04 08:00:00 10.9 7 Este 14 Este 0 932.1 0.2 81
2017-10-04 07:00:00 11.4 7 Este 16 Este 0 932.3 0.4 80
2017-10-04 06:00:00 11.8 8 Este 14 Nordeste 0 932 -0.4 79
2017-10-04 05:00:00 12.6 8 Este 17 Este 0 931.9 -0.4 76
2017-10-04 04:00:00 13.2 10 Este 21 Este 0 931.9 -0.7 73
2017-10-04 03:00:00 13.9 8 Este 15 Este 0 932.4 -0.1 71
2017-10-04 02:00:00 12.5 8 Sudeste 12 Sudeste 0 932.3 0.2 72
2017-10-04 01:00:00 12.1 3 Este 8 Este 0 932.6 1.1 76
2017-10-04 00:00:00 12.2 4 Este 7 Sudeste 0 932.5 1.5 76
2017-10-03 23:00:00 14.1 0 Calma 8 Sudeste 0 932.1 1.6 67
2017-10-03 22:00:00 16.8 2 Sudoeste 9 Sudoeste 0 931.5 1.3 53
2017-10-03 21:00:00 20.5 3 Este 18 Norte 0 931 1 42
2017-10-03 20:00:00 23 6 Norte 16 Norte 0 930.5 0.1 32
2017-10-03 19:00:00 24.8 6 Noroeste 17 Noroeste 0 930.2 -0.3 31
2017-10-03 18:00:00 25.4 5 Noroeste 23 Noroeste 0 930 -1.3 32
2017-10-03 17:00:00 25.7 6 Noroeste 26 Noroeste 0 930.4 -1.5 36
2017-10-03 16:00:00 26 8 Noroeste 22 Noroeste 0 930.5 -2.1 37
2017-10-03 15:00:00 25.8 6 Oeste 21 Noroeste 0 931.3 -1.7 38
2017-10-03 14:00:00 25.1 4 Sudoeste 17 Noroeste 0 931.9 -1.3 41
2017-10-03 13:00:00 22.5 3 Oeste 13 Sudoeste 0 932.6 -0.3 48
2017-10-03 12:00:00 20.7 3 Noroeste 12 Noroeste 0 933 0.2 56
2017-10-03 11:00:00 18.7 0 Calma 8 Sudeste 0 933.2 0.6 59
2017-10-03 10:00:00 15.1 3 Este 9 Sudeste 0 932.9 0.4 68
2017-10-03 09:00:00 10.4 4 Sudeste 9 Sudeste 0 932.8 0.2 87
2017-10-03 08:00:00 8.8 3 Sudeste 6 Sudeste 0 932.6 -0.2 86
2017-10-03 07:00:00 8.8 0 Calma 3 Este 0 932.5 -0.5 85
2017-10-03 06:00:00 9.4 0 Calma 3 Norte 0 932.6 -0.6 86
2017-10-03 05:00:00 9.7 0 Calma 5 Sudeste 0 932.8 -0.6 83
2017-10-03 04:00:00 10.7 2 Este 13 Sudeste 0 933 -0.4 82
2017-10-03 03:00:00 10.5 5 Este 9 Sudeste 0 933.2 -0.6 83
2017-10-03 02:00:00 10.9 3 Sudeste 5 Este 0 933.4 -0.5 81
2017-10-03 01:00:00 11.6 0 Calma 5 Sudeste 0 933.4 -0.3 78
2017-10-03 00:00:00 12.6 0 Calma 5 Sudoeste 0 933.8 0.4 75
2017-10-02 23:00:00 14.5 3 Este 6 Este 0 933.9 0.8 72
2017-10-02 22:00:00 16.4 3 Sudoeste 5 Sudoeste 0 933.7 0.7 61
2017-10-02 21:00:00 19.1 3 Sudoeste 7 Sudoeste 0 933.4 0.6 53
2017-10-02 20:00:00 22.6 0 Calma 18 Noroeste 0 933.1 -0.1 44
2017-10-02 19:00:00 24.3 9 Noroeste 23 Noroeste 0 933 -0.7 39
2017-10-02 18:00:00 25 9 Noroeste 23 Noroeste 0 932.8 -1.4 38
2017-10-02 17:00:00 25 10 Norte 23 Este 0 933.2 -1.1 41
2017-10-02 16:00:00 24.7 12 Norte 30 Norte 0 933.7 -1 43
2017-10-02 15:00:00 24.2 17 Norte 32 Norte 0 934.2 -1 48
2017-10-02 14:00:00 24.5 9 Nordeste 24 Norte 0 934.3 -0.9 48
2017-10-02 13:00:00 23.3 10 Nordeste 26 Nordeste 0 934.7 -0.3 52
2017-10-02 12:00:00 22.5 13 Nordeste 28 Norte 0 935.2 0.2 56
2017-10-02 11:00:00 20.2 2 Sudoeste 6 Sudoeste 0 935.2 0.3 59
2017-10-02 10:00:00 15.5 0 Calma 6 Noroeste 0 935 0.4 71
2017-10-02 09:00:00 13.3 0 Calma 8 Oeste 0 935 0.4 76
2017-10-02 08:00:00 12.4 0 Calma 6 Sudoeste 0 934.9 0.8 78
2017-10-02 07:00:00 11.9 3 Sudoeste 6 Sudoeste 0 934.6 0.4 80
2017-10-02 06:00:00 10.9 0 Calma -- -- 0 934.6 0.2 80
2017-10-02 05:00:00 10.1 2 Oeste 4 Noroeste 0 934.1 -0.2 81
2017-10-02 04:00:00 10.1 0 Calma 4 Sudoeste 0 934.2 -0.1 78
2017-10-02 03:00:00 10.1 0 Calma 4 Sudoeste 0 934.4 0.1 76
2017-10-02 02:00:00 10.8 0 Calma 5 Este 0 934.3 0.2 73
2017-10-02 01:00:00 11.8 0 Calma 3 Este 0 934.3 0.5 74
2017-10-02 00:00:00 12.8 0 Calma 4 Este 0 934.3 0.5 67
2017-10-01 23:00:00 13.9 0 Calma 6 Este 0 934.1 0.8 70
2017-10-01 22:00:00 15.5 0 Calma 4 Sudoeste 0 933.8 0.8 59
2017-10-01 21:00:00 17.4 0 Calma 4 Sudoeste 0 933.8 1.2 55
2017-10-01 20:00:00 20.2 0 Calma 5 Nordeste 0 933.3 0.7 49
2017-10-01 19:00:00 21.8 4 Norte 9 Norte 0 933 0 42
2017-10-01 18:00:00 22.5 0 Calma 9 Norte 0 932.6 -0.6 39
2017-10-01 17:00:00 22.4 3 Nordeste 16 Norte 0 932.6 -0.8 39
2017-10-01 16:00:00 22.6 4 Norte 24 Noroeste 0 933 -0.4 39
2017-10-01 15:00:00 22.6 5 Oeste 18 Oeste 0 933.2 -0.5 40
2017-10-01 14:00:00 21.6 5 Noroeste 15 Noroeste 0 933.4 -0.1 43
2017-10-01 13:00:00 20.9 4 Oeste 13 Nordeste 0 933.4 0.2 46
2017-10-01 12:00:00 19.1 3 Oeste 14 Nordeste 0 933.7 1.4 53
2017-10-01 11:00:00 15.3 2 Sudoeste 10 Sudoeste 0 933.5 1.3 65
2017-10-01 10:00:00 13.4 3 Sudoeste 9 Oeste 0 933.2 1.3 73
2017-10-01 09:00:00 11.8 0 Calma 5 Oeste 0 932.3 0.6 81
2017-10-01 08:00:00 11.6 0 Calma 3 Sudoeste 0 932.2 0.6 82
2017-10-01 07:00:00 11.3 0 Calma 4 Sudoeste 0 931.9 0.4 81
2017-10-01 06:00:00 10.8 2 Sudoeste 5 Sudoeste 0 931.7 0.2 78
2017-10-01 05:00:00 11 0 Calma 4 Sudoeste 0 931.6 0.2 77
2017-10-01 04:00:00 11.8 0 Calma 3 Sudoeste 0 931.5 0 75
2017-10-01 03:00:00 12.8 0 Calma 4 Sudoeste 0 931.5 0 72
2017-10-01 02:00:00 13.5 0 Calma -- -- 0 931.4 0.4 74
2017-10-01 01:00:00 13 0 Calma 5 Sudoeste 0 931.5 1.1 70
2017-10-01 00:00:00 13.7 3 Sudoeste 4 Oeste 0 931.5 1.6 66
2017-09-30 23:00:00 15.2 0 Calma 5 Oeste 0 931 1.4 63
2017-09-30 22:00:00 17.6 2 Norte 7 Nordeste 0 930.4 1.3 57
2017-09-30 21:00:00 18.9 3 Este 19 Norte 0 929.9 1.1 54
2017-09-30 20:00:00 20.9 7 Norte 19 Norte 0 929.6 0.7 45
2017-09-30 19:00:00 22.4 9 Norte 24 Noroeste 0 929.1 0.1 40
2017-09-30 18:00:00 23.4 4 Oeste 22 Norte 0 928.8 -0.5 37
2017-09-30 17:00:00 24.3 6 Oeste 26 Oeste 0 928.9 -1.2 33
2017-09-30 16:00:00 24.5 8 Sudoeste 26 Oeste 0 929 -1.7 34
2017-09-30 15:00:00 22.5 7 Norte 21 Noroeste 0 929.3 -2 42
2017-09-30 14:00:00 21.7 5 Sudoeste 16 Sudoeste 0 930.1 -0.9 44
2017-09-30 13:00:00 19.9 5 Oeste 17 Oeste 0 930.7 0 47
2017-09-30 12:00:00 18.2 4 Oeste 13 Noroeste 0 931.3 0.3 49
2017-09-30 11:00:00 15.3 4 Norte 6 Norte 0 931 -0.1 60
2017-09-30 10:00:00 13.3 2 Este 5 Este 0 930.7 0 69
2017-09-30 09:00:00 11.6 0 Calma 4 Sudoeste 0 931 0.6 71
2017-09-30 08:00:00 11.1 0 Calma -- -- 0 931.1 0.5 75
2017-09-30 07:00:00 10.8 0 Calma 4 Este 0 930.7 0.1 76
2017-09-30 06:00:00 10.8 0 Calma 3 Noroeste 0 930.4 -0.2 76
2017-09-30 05:00:00 11 0 Calma 3 Este 0 930.6 -0.3 73
2017-09-30 04:00:00 11.3 0 Calma 4 Este 0 930.6 -0.3 73
2017-09-30 03:00:00 11.1 0 Calma 3 Este 0 930.6 -0.5 76
2017-09-30 02:00:00 10.8 0 Calma 4 Este 0 930.9 0 73
2017-09-30 01:00:00 11.5 2 Nordeste 6 Sudeste 0 930.9 0 67
2017-09-30 00:00:00 12.3 0 Calma 4 Este 0 931.1 0.5 64
2017-09-29 23:00:00 14 0 Calma 3 Este 0 930.9 0.5 61
2017-09-29 22:00:00 16.5 0 Calma 2 Este 0 930.9 0.6 51
2017-09-29 21:00:00 19.2 0 Calma 4 Sudoeste 0 930.6 0.4 45
2017-09-29 20:00:00 23.1 0 Calma 11 Oeste 0 930.4 0.1 32
2017-09-29 19:00:00 25.4 3 Oeste 18 Oeste 0 930.3 -0.3 27
2017-09-29 18:00:00 25.6 5 Noroeste 18 Noroeste 0 930.2 -1 28
2017-09-29 17:00:00 27.4 8 Sudoeste 22 Oeste 0 930.3 -1.8 23
2017-09-29 16:00:00 27.2 10 Sudoeste 27 Sudoeste 0 930.6 -2.1 22
2017-09-29 15:00:00 25.6 4 Noroeste 21 Sudoeste 0 931.2 -1.9 25
2017-09-29 14:00:00 24.7 5 Oeste 16 Oeste 0 932.1 -1.3 28
2017-09-29 13:00:00 22.4 4 Sudoeste 13 Oeste 0 932.7 -0.6 30
2017-09-29 12:00:00 19.9 0 Calma 9 Este 0 933.1 0.1 43
2017-09-29 11:00:00 17 5 Este 10 Sudeste 0 933.4 0.9 49
2017-09-29 10:00:00 14.7 2 Este 8 Este 0 933.3 1.1 57
2017-09-29 09:00:00 9.3 4 Sudeste 10 Sudeste 0 933 0.9 70
2017-09-29 08:00:00 8.3 5 Sudeste 10 Este 0 932.5 0.3 72
2017-09-29 07:00:00 8.6 5 Sudeste 8 Este 0 932.2 -0.3 71
2017-09-29 06:00:00 8.5 4 Este 9 Sudeste 0 932.1 -0.5 71
2017-09-29 05:00:00 9.1 5 Sudeste 9 Sudeste 0 932.2 -0.3 64
2017-09-29 04:00:00 9.8 3 Este 7 Sudeste 0 932.5 0.1 62
2017-09-29 03:00:00 10.5 4 Sudeste 12 Este 0 932.6 0.1 59
2017-09-29 02:00:00 9.9 5 Este 8 Este 0 932.5 0.3 61
2017-09-29 01:00:00 9.9 0 Calma 4 Sudoeste 0 932.4 0.3 57
2017-09-29 00:00:00 10.9 2 Noroeste 5 Este 0 932.5 1 64
2017-09-28 23:00:00 12.8 0 Calma 9 Este 0 932.2 1.2 48
2017-09-28 22:00:00 14.8 0 Calma 10 Oeste 0 932.1 1.3 42
2017-09-28 21:00:00 17.8 0 Calma 4 Sudoeste 0 931.5 0.7 32
2017-09-28 20:00:00 22.4 0 Calma 9 Oeste 0 931 0 31
2017-09-28 19:00:00 25.6 3 Noroeste 13 Sudoeste 0 930.8 -0.7 22
2017-09-28 18:00:00 26.3 5 Noroeste 15 Sudoeste 0 930.8 -1.3 17
2017-09-28 17:00:00 27 4 Sudoeste 17 Noroeste 0 931 -1.6 17
2017-09-28 16:00:00 27.1 6 Sudoeste 21 Sudoeste 0 931.5 -1.7 20
2017-09-28 15:00:00 25.7 4 Oeste 16 Este 0 932.1 -1.6 23
2017-09-28 14:00:00 24.1 5 Este 14 Sudeste 0 932.6 -1.5 26
2017-09-28 13:00:00 21.8 3 Nordeste 14 Sudeste 0 933.2 -0.8 33
2017-09-28 12:00:00 19.6 4 Este 11 Este 0 933.7 0.1 42
2017-09-28 11:00:00 16.4 6 Este 13 Este 0 934.1 0.9 52
2017-09-28 10:00:00 13.2 5 Sudeste 12 Sudeste 0 934 1.3 61
2017-09-28 09:00:00 8.9 5 Este 12 Sudeste 0 933.6 1 73
2017-09-28 08:00:00 7.3 3 Este 8 Sudeste 0 933.2 0.8 76
2017-09-28 07:00:00 7.5 5 Sudeste 10 Sudeste 0 932.7 0.4 74
2017-09-28 06:00:00 7.5 4 Este 9 Sudeste 0 932.6 0.3 72
2017-09-28 05:00:00 7.8 4 Sudeste 7 Sudeste 0 932.4 0.2 67
2017-09-28 04:00:00 8.6 2 Sudeste 10 Este 0 932.3 0.2 64
2017-09-28 03:00:00 9.1 7 Sudeste 12 Sudeste 0 932.3 0.7 61
2017-09-28 02:00:00 8.6 3 Este 9 Este 0 932.2 1 60
2017-09-28 01:00:00 8.9 3 Oeste 8 Sudeste 0 932.1 1.4 62
2017-09-28 00:00:00 9.4 2 Sudeste 4 Este 0 931.6 1.5 53
2017-09-27 23:00:00 11.2 4 Este 9 Este 0 931.2 1.5 62
2017-09-27 22:00:00 13.7 0 Calma 3 Este 0 930.7 1.5 44
2017-09-27 21:00:00 16.7 0 Calma 5 Sudoeste 0 930.1 1.1 33
2017-09-27 20:00:00 21.2 0 Calma 9 Noroeste 0 929.7 0.7 33
2017-09-27 19:00:00 24 4 Oeste 17 Norte 0 929.2 0 20
2017-09-27 18:00:00 25.1 6 Oeste 19 Noroeste 0 929 -0.6 17
2017-09-27 17:00:00 25.9 5 Sudoeste 19 Sudoeste 0 929 -0.9 18
2017-09-27 16:00:00 25.4 6 Noroeste 23 Sudoeste 0 929.2 -1.3 19
2017-09-27 15:00:00 24.3 4 Oeste 15 Norte 0 929.6 -1.3 24
2017-09-27 14:00:00 22.4 6 Nordeste 13 Nordeste 0 929.9 -1.1 28
2017-09-27 13:00:00 20.3 4 Este 10 Este 0 930.5 -0.5 33
2017-09-27 12:00:00 18.2 4 Este 12 Sudeste 0 930.9 -0.1 41
2017-09-27 11:00:00 15 6 Este 15 Sudeste 0 931 0.5 52
2017-09-27 10:00:00 11.9 6 Este 12 Este 0 931 1 64
2017-09-27 09:00:00 7.6 0 Calma 6 Este 0 931 1.1 81
2017-09-27 08:00:00 4.4 0 Calma 5 Sudeste 0 930.5 0.7 80
2017-09-27 07:00:00 5 3 Este 5 Sudeste 0 930 0.2 81
2017-09-27 06:00:00 5.3 0 Calma 6 Sudeste 0 929.9 -0.3 80
2017-09-27 05:00:00 5.8 0 Calma 6 Este 0 929.8 -0.5 77
2017-09-27 04:00:00 6.8 0 Calma 5 Sudeste 0 929.8 -0.7 72
2017-09-27 03:00:00 8.4 3 Este 9 Sudeste 0 930.2 -0.3 71
2017-09-27 02:00:00 8.8 4 Este 8 Este 0 930.3 0.1 71
2017-09-27 01:00:00 8 0 Calma 6 Este 0 930.5 0.7 71
2017-09-27 00:00:00 8.9 0 Calma -- -- 0 930.5 1.1 74
2017-09-26 23:00:00 10.6 0 Calma 6 Este 0 930.2 1.1 63
2017-09-26 22:00:00 13.1 4 Sudeste 6 Este 0 929.8 1 54
2017-09-26 21:00:00 15.7 0 Calma 4 Sudoeste 0 929.4 0.8 45
2017-09-26 20:00:00 19.4 0 Calma 6 Sudoeste 0 929.1 0.1 44
2017-09-26 19:00:00 21.4 2 Noroeste 8 Oeste 0 928.8 -0.6 30
2017-09-26 18:00:00 22.4 3 Sudoeste 15 Sudoeste 0 928.6 -1.5 29
2017-09-26 17:00:00 22.4 3 Sudoeste 20 Noroeste 0 929 -1.7 32
2017-09-26 16:00:00 22.4 4 Sudoeste 18 Oeste 0 929.4 -1.7 29
2017-09-26 15:00:00 20.7 5 Norte 19 Noroeste 0 930.1 -1.4 34
2017-09-26 14:00:00 19.3 4 Nordeste 12 Nordeste 0 930.7 -0.8 40
2017-09-26 13:00:00 17.7 4 Nordeste 16 Este 0 931.1 -0.5 44
2017-09-26 12:00:00 16.9 8 Este 18 Sudeste 0 931.5 0 53
2017-09-26 11:00:00 14.8 10 Este 19 Sudeste 0 931.5 0.2 59
2017-09-26 10:00:00 10.9 8 Este 15 Este 0 931.6 0.3 70
2017-09-26 09:00:00 7.1 3 Sudeste 8 Sudeste 0 931.5 0.1 82
2017-09-26 08:00:00 4.9 0 Calma 6 Este 0 931.3 -0.2 84
2017-09-26 07:00:00 5.9 2 Este 7 Sudeste 0 931.3 -0.3 86
2017-09-26 06:00:00 5.7 2 Sudoeste 4 Sudoeste 0 931.4 -0.4 84
2017-09-26 05:00:00 7 2 Este 5 Sudeste 0 931.5 -0.3 85
2017-09-26 04:00:00 6.5 0 Calma 3 Este 0 931.6 0.2 81
2017-09-26 03:00:00 7.3 0 Calma 4 Sudoeste 0 931.8 0.5 79
2017-09-26 02:00:00 8.2 0 Calma 4 Sudoeste 0 931.8 0.4 76
2017-09-26 01:00:00 9.5 0 Calma 5 Sudoeste 0 931.4 0 73
2017-09-26 00:00:00 11.7 0 Calma 10 Norte 0 931.3 0.2 70
2017-09-25 23:00:00 13.8 3 Sudeste 9 Norte 0 931.4 0.6 65
2017-09-25 22:00:00 15.7 4 Nordeste 16 Nordeste 0 931.4 1.1 57
2017-09-25 21:00:00 17.3 6 Nordeste 17 Nordeste 0 931.1 1.1 46
2017-09-25 20:00:00 19 6 Nordeste 26 Nordeste 0 930.8 0.8 39
2017-09-25 19:00:00 20.7 9 Norte 25 Noroeste 0 930.3 -0.1 34
2017-09-25 18:00:00 21.5 10 Norte 26 Noroeste 0 930 -0.6 32
2017-09-25 17:00:00 22.1 8 Noroeste 25 Noroeste 0 930 -1 29
2017-09-25 16:00:00 22.8 6 Oeste 25 Oeste 0 930.4 -0.8 28
2017-09-25 15:00:00 21.7 5 Oeste 21 Noroeste 0 930.6 -1 34
2017-09-25 14:00:00 20.6 4 Oeste 25 Noroeste 0 931 -0.7 39
2017-09-25 13:00:00 19.3 8 Noroeste 22 Noroeste 0 931.2 -0.1 42
2017-09-25 12:00:00 18.7 4 Oeste 15 Oeste 0 931.6 0.8 48
2017-09-25 11:00:00 17.9 4 Oeste 14 Sudoeste 0 931.7 1.3 51
2017-09-25 10:00:00 14.4 4 Noroeste 12 Noroeste 0 931.3 0.9 67
2017-09-25 09:00:00 13.2 4 Oeste 10 Oeste 0 930.8 0.9 71
2017-09-25 08:00:00 12.5 2 Oeste 9 Oeste 0 930.4 0.7 72
2017-09-25 07:00:00 13.5 3 Sudoeste 10 Oeste 0 930.4 0.6 69
2017-09-25 06:00:00 14.1 2 Sudoeste 14 Sudoeste 0 929.9 -0.1 62
2017-09-25 05:00:00 12.9 6 Sudoeste 14 Sudoeste 0 929.7 -0.4 59
2017-09-25 04:00:00 11.8 0 Calma 6 Oeste 0 929.8 -0.4 65
2017-09-25 03:00:00 12.6 3 Sudoeste 7 Sudoeste 0 930 -0.2 58
2017-09-25 02:00:00 13.2 0 Calma 4 Este 0 930.1 0.1 59
2017-09-25 01:00:00 13.4 2 Norte 12 Sudoeste 0 930.2 0.9 53
2017-09-25 00:00:00 14.9 6 Sudoeste 13 Sudoeste 0 930.2 1.2 42
2017-09-24 23:00:00 15.2 2 Sudoeste 12 Sudoeste 0 930 1.3 47
2017-09-24 22:00:00 16.7 4 Sudoeste 12 Sudoeste 0 929.3 0.6 38
2017-09-24 21:00:00 19.2 2 Sudoeste 8 Sudoeste 0 929 0.3 34
2017-09-24 20:00:00 23.6 0 Calma 14 Oeste 0 928.7 -0.4 28
2017-09-24 19:00:00 26.8 6 Oeste 31 Sudoeste 0 928.7 -0.9 16
2017-09-24 18:00:00 27.6 9 Sudoeste 27 Oeste 0 928.7 -1.3 16
2017-09-24 17:00:00 27.8 7 Oeste 28 Oeste 0 929.1 -1.5 18
2017-09-24 16:00:00 27.5 6 Oeste 31 Oeste 0 929.6 -1.4 19
2017-09-24 15:00:00 27.1 13 Sudoeste 36 Sudoeste 0 930 -1.4 19
2017-09-24 14:00:00 26 8 Sudoeste 35 Oeste 0 930.6 -1.1 23
2017-09-24 13:00:00 22.7 3 Nordeste 10 Este 0 931 -0.6 34
2017-09-24 12:00:00 20.3 5 Nordeste 10 Este 0 931.4 0.3 42
2017-09-24 11:00:00 17 5 Este 12 Sudeste 0 931.7 0.8 50
2017-09-24 10:00:00 14 5 Este 14 Este 0 931.6 1.1 54
2017-09-24 09:00:00 10.4 5 Sudeste 11 Sudeste 0 931.1 0.5 65
2017-09-24 08:00:00 8.7 3 Este 9 Sudeste 0 930.9 0.3 70
2017-09-24 07:00:00 9.3 5 Este 9 Sudeste 0 930.5 -0.3 68
2017-09-24 06:00:00 10 5 Sudeste 8 Sudeste 0 930.6 -0.4 65
2017-09-24 05:00:00 10.2 2 Este 11 Este 0 930.6 -0.1 68
2017-09-24 04:00:00 9.6 3 Sudeste 7 Este 0 930.8 0.5 66
2017-09-24 03:00:00 9.6 0 Calma 21 Sudoeste 0 931 0.9 63
2017-09-24 02:00:00 9.9 0 Calma 6 Sudoeste 0 930.7 0.8 64
2017-09-24 01:00:00 11.1 0 Calma 5 Este 0 930.3 0.7 57
2017-09-24 00:00:00 12.8 3 Este 8 Este 0 930.1 0.8 58
2017-09-23 23:00:00 13.5 0 Calma 4 Sudeste 0 929.9 1 51
2017-09-23 22:00:00 15.4 2 Este 5 Sudeste 0 929.6 1.3 42
2017-09-23 21:00:00 18.2 0 Calma 6 Noroeste 0 929.3 1.3 34
2017-09-23 20:00:00 22.7 3 Noroeste 15 Noroeste 0 928.9 0.7 27
2017-09-23 19:00:00 25.3 5 Oeste 22 Noroeste 0 928.3 -0.2 20
2017-09-23 18:00:00 25.8 5 Noroeste 19 Oeste 0 928 -1.3 20
2017-09-23 17:00:00 26.7 6 Oeste 27 Norte 0 928.2 -1.5 19
2017-09-23 16:00:00 26.4 9 Noroeste 27 Sudoeste 0 928.5 -1.5 24
2017-09-23 15:00:00 25.3 7 Norte 22 Oeste 0 929.3 -0.9 28
2017-09-23 14:00:00 24.1 5 Sudoeste 15 Oeste 0 929.7 -0.4 32
2017-09-23 13:00:00 21.2 2 Sur 12 Este 0 930 0.1 44
2017-09-23 12:00:00 19.8 6 Este 18 Sudeste 0 930.2 0.4 50
2017-09-23 11:00:00 16.6 10 Este 20 Sudeste 0 930.1 0.7 61
2017-09-23 10:00:00 14.4 11 Este 24 Sudeste 0 929.9 0.7 68
2017-09-23 09:00:00 12.3 9 Este 24 Este 0 929.8 0.6 78
2017-09-23 08:00:00 11.2 9 Este 21 Este 0 929.4 0.2 83
2017-09-23 07:00:00 11.4 10 Este 20 Este 0 929.2 -0.3 82
2017-09-23 06:00:00 11.7 10 Este 22 Este 0 929.2 -0.6 81
2017-09-23 05:00:00 12.5 12 Este 22 Este 0 929.2 -0.6 77
2017-09-23 04:00:00 12.8 11 Este 23 Sudeste 0 929.5 -0.5 76
2017-09-23 03:00:00 13.3 12 Este 24 Este 0 929.8 0.1 73
2017-09-23 02:00:00 13.7 12 Este 26 Este 0 929.8 0.4 70
2017-09-23 01:00:00 14.7 12 Este 24 Este 0 930 0.7 65
2017-09-23 00:00:00 15.6 14 Este 29 Sudeste 0.2 929.7 1.1 63
2017-09-22 23:00:00 16.6 15 Este 30 Sudeste 0 929.4 1.3 60
2017-09-22 22:00:00 16.9 6 Este 19 Este 0 929.3 1.6 58
2017-09-22 21:00:00 18.4 10 Este 32 Sudeste 0 928.6 1.1 50
2017-09-22 20:00:00 19.7 14 Este 38 Sudeste 0 928.1 0.2 45
2017-09-22 19:00:00 21.3 18 Este 38 Este 0 927.7 -0.4 41
2017-09-22 18:00:00 23.2 15 Este 38 Sudeste 0 927.5 -0.4 37
2017-09-22 17:00:00 23.1 15 Sudeste 39 Sudeste 0 927.9 -0.4 35
2017-09-22 16:00:00 22.8 14 Este 37 Este 0 928.1 -0.5 38
2017-09-22 15:00:00 24.3 3 Noroeste 14 Sudeste 0 927.9 -0.9 31
2017-09-22 14:00:00 23.1 5 Nordeste 14 Este 0 928.3 -0.4 33
2017-09-22 13:00:00 21 3 Nordeste 17 Sudeste 0 928.6 -0.1 43
2017-09-22 12:00:00 19.9 7 Este 26 Sudeste 0 928.8 0.5 48
2017-09-22 11:00:00 18 13 Este 31 Este 0 928.7 0.6 52
2017-09-22 10:00:00 15.6 5 Nordeste 15 Este 0 928.7 1 60
2017-09-22 09:00:00 10.2 0 Calma 4 Sudeste 0 928.3 0.5 80
2017-09-22 08:00:00 8.9 0 Calma 6 Este 0 928.1 0.2 81
2017-09-22 07:00:00 9.8 0 Calma 4 Sudeste 0 927.7 -0.3 80
2017-09-22 06:00:00 10.6 0 Calma 6 Oeste 0 927.8 -0.6 81
2017-09-22 05:00:00 10.9 2 Sudoeste 6 Oeste 0 927.9 -0.3 76
2017-09-22 04:00:00 11.5 0 Calma 6 Sudoeste 0 928 0 73
2017-09-22 03:00:00 11.5 2 Sudoeste 4 Sudoeste 0 928.4 0.6 71
2017-09-22 02:00:00 12.4 2 Sudoeste 9 Sudoeste 0 928.2 0.8 67
2017-09-22 01:00:00 13.9 2 Sudoeste 13 Oeste 0 928 0.9 64
2017-09-22 00:00:00 15.7 2 Sudeste 14 Noroeste 0 927.8 1.2 59
2017-09-21 23:00:00 17.3 3 Oeste 17 Oeste 0 927.4 1.6 52
2017-09-21 22:00:00 19.5 6 Norte 21 Sudoeste 0 927.1 1.4 37
2017-09-21 21:00:00 20.8 0 Calma 18 Noroeste 0 926.6 0.9 29
2017-09-21 20:00:00 22.2 5 Noroeste 16 Noroeste 0 925.8 0 25
2017-09-21 19:00:00 24.2 7 Noroeste 18 Noroeste 0 925.7 -0.2 22
2017-09-21 18:00:00 25 6 Noroeste 21 Noroeste 0 925.7 -0.4 23
2017-09-21 17:00:00 26.3 5 Oeste 21 Oeste 0 925.8 -0.8 19
2017-09-21 16:00:00 26.5 8 Oeste 27 Sudoeste 0 925.9 -1.2 18
2017-09-21 15:00:00 26.5 6 Oeste 29 Oeste 0 926.1 -1.5 19
2017-09-21 14:00:00 25.4 5 Sudoeste 19 Sudoeste 0 926.6 -1.3 21
2017-09-21 13:00:00 22 4 Nordeste 13 Este 0 927.1 -0.8 31
2017-09-21 12:00:00 19.6 4 Este 11 Este 0 927.6 0 32
2017-09-21 11:00:00 15.8 6 Este 13 Este 0 927.9 0.5 43
2017-09-21 10:00:00 12.4 4 Este 11 Sudeste 0 927.9 0.9 51
2017-09-21 09:00:00 8.8 7 Sudeste 10 Este 0 927.6 0.3 61
2017-09-21 08:00:00 5.3 0 Calma 7 Sudeste 0 927.4 0.2 74
2017-09-21 07:00:00 5.6 3 Sudeste 6 Sudeste 0 927 -0.5 78
2017-09-21 06:00:00 6.5 0 Calma 10 Sudeste 0 927.3 -0.5 76
2017-09-21 05:00:00 7.5 4 Sudeste 9 Sudeste 0 927.2 -0.6 68
2017-09-21 04:00:00 7 2 Este 3 Este 0 927.5 -0.3 72
2017-09-21 03:00:00 8.4 0 Calma 10 Sudeste 0 927.8 0.1 71
2017-09-21 02:00:00 9.1 5 Este 12 Este 0 927.8 0.2 66
2017-09-21 01:00:00 8.3 0 Calma 4 Sudeste 0 927.8 0.4 67
2017-09-21 00:00:00 9.3 0 Calma 5 Este 0 927.7 0.6 59
2017-09-20 23:00:00 11.2 3 Este 6 Este 0 927.6 0.6 63
2017-09-20 22:00:00 13.9 2 Este 4 Este 0 927.4 0.2 45
2017-09-20 21:00:00 16.9 0 Calma -- -- 0 927.1 -0.3 39
2017-09-20 20:00:00 21.3 0 Calma 6 Oeste 0 927 -0.9 34
2017-09-20 19:00:00 23.9 4 Noroeste 14 Sudoeste 0 927.2 -1.3 21
2017-09-20 18:00:00 24.4 4 Oeste 15 Sudoeste 0 927.4 -1.7 21
2017-09-20 17:00:00 25.2 4 Oeste 21 Sudoeste 0 927.9 -1.7 21
2017-09-20 16:00:00 25.1 5 Oeste 17 Oeste 0 928.5 -1.8 22
2017-09-20 15:00:00 24 5 Sudoeste 13 Oeste 0 929.1 -1.9 23
2017-09-20 14:00:00 21.6 2 Sudoeste 11 Nordeste 0 929.6 -1.7 30
2017-09-20 13:00:00 19.6 4 Este 10 Sudeste 0 930.3 -1.1 30
2017-09-20 12:00:00 17.9 3 Este 9 Este 0 931 -0.5 37
2017-09-20 11:00:00 13.7 4 Este 10 Este 0 931.3 -0.2 48
2017-09-20 10:00:00 10.5 4 Sudeste 10 Sudeste 0 931.4 0 54
2017-09-20 09:00:00 6.7 5 Sudeste 9 Sudeste 0 931.5 -0.1 66
2017-09-20 08:00:00 3.7 4 Este 9 Sudeste 0 931.5 -0.4 78
2017-09-20 07:00:00 3.3 3 Este 6 Este 0 931.4 -0.7 80
2017-09-20 06:00:00 3.1 0 Calma 5 Sudeste 0 931.6 -0.7 77
2017-09-20 05:00:00 4.2 0 Calma 7 Este 0 931.9 -0.4 73
2017-09-20 04:00:00 5.7 3 Sudeste 7 Este 0 932.1 -0.3 71
2017-09-20 03:00:00 6.3 4 Este 8 Este 0 932.3 -0.3 72
2017-09-20 02:00:00 5.9 3 Este 4 Este 0 932.3 -0.1 67
2017-09-20 01:00:00 6.3 2 Sur 5 Sudoeste 0 932.4 -0.1 62
2017-09-20 00:00:00 7.4 0 Calma 5 Sudoeste 0 932.6 0.5 65